Price, Arkansas
Current Conditions -  °F | °C
As of 11:53 AM on Thursday 29 Jan 2015 (Local Time) from KHOT Reporting Station
Clear Clear  
Wind Chill: 62°   Ceiling: Unl
Heat Index: 62°   Visibility: 10mi
Dew Point: 38°   Wind: 8mph
Humidity: 41%   Direction: 320°NW
Pressure: 30.19"   Gusts: 16mph
Location:  34.5331°N, 93.0035°W
Report Text: KHOT 291753Z AUTO 32007G14KT 10SM CLR 17/03 A3019 RMK AO2 SLP219 T01670033 10172 20106 51022
Loading
Personal Weather Stations






























Interactive Weather Map New forecast layout! Learn more

10-Day Weather Forecast

Advertisements
Track Severe Weather on mobile